Observations for TRAVERSE CITY CHERR, MI (TVC)

KTVC 271853Z VRB05KT 10SM FEW065 FEW150 22/14 A2985 RMK AO2 SLP107 T02220144
KTVC 271753Z 03007KT 10SM FEW065 FEW140 23/16 A2984 RMK AO2 SLP102 T02330156 10333 20222 53014  
KTVC 271653Z 27010KT 10SM FEW120 32/18 A2982 RMK AO2 SLP095 T03170183   
KTVC 271553Z 24007KT 10SM FEW120 31/18 A2981 RMK AO2 SLP089 T03060183   
KTVC 271453Z 22009G15KT 180V250 10SM FEW120 SCT180 29/18 A2979 RMK AO2 SLP085 T02890178 58003   
KTVC 271353Z 22006KT 10SM FEW065 FEW120 27/17 A2980 RMK AO2 SLP089 T02720172
KTVC 271253Z 21006KT 10SM FEW065 FEW110 25/17 A2981 RMK AO2 SLP090 T02500167
KTVC 271153Z 17005KT 10SM FEW080 FEW110 22/17 A2981 RMK AO2 SLP091 60000 T02220172 10222 20161 53002
KTVC 271053Z 19003KT 10SM FEW110 20/17 A2980 RMK AO2 SLP091 T02000172   
KTVC 270953Z AUTO 18003KT 10SM CLR 18/17 A2979 RMK AO2 SLP087 T01830167 
KTVC 270853Z AUTO 00000KT 10SM CLR 17/16 A2980 RMK AO2 LTG DSNT SE AND S SLP089 60000 T01720161 50005   
KTVC 270753Z AUTO 05004KT 10SM BKN085 BKN110 18/16 A2981 RMK AO2 PK WND 35026/0656 LTG DSNT ALQDS RAB11E20 TSB02E31 SLP091 P0000 T01830161  
KTVC 270737Z AUTO 00000KT 10SM VCTS FEW075 SCT090 SCT110 18/16 A2981 RMK AO2 PKWND 35026/0656 LTG DSNT ALQDS RAB11E20 TSB02E31 P0000 T01830161
KTVC 270708Z AUTO 35005KT 9SM TS BKN080 BKN100 19/17 A2979 RMK AO2 PK WND 35026/0656 LTG DSNT N-E TSB02 T01940167
KTVC 270751Z AUTO 04003KT 10SM BKN085 BKN110 18/17 A2981 RMK AO2 PK WND 35026/0656 LTG DSNT ALQDS RAB11E20 TSB02E31 P0000
KTVC 270653Z AUTO 35010KT 10SM VCTS FEW080 BKN100 20/17 A2978 RMK AO2 LTG DSNT N AND NE PRESRR SLP082 T02000167 
KTVC 270637Z AUTO 00000KT 10SM VCTS OVC100 20/17 A2976 RMK AO2 LTG DSNT N AND NW T02000172
KTVC 270553Z AUTO 00000KT 10SM CLR 19/17 A2977 RMK AO2 LTG DSNT NW SLP078 60000 T01890167 10217 20178 50007 
KTVC 270453Z AUTO VRB03KT 10SM BKN100 21/18 A2978 RMK AO2 SLP081 T02110178 402830183
KTVC 270353Z AUTO 12003KT 10SM CLR 21/18 A2976 RMK AO2 SLP073 T02060178 
KTVC 270253Z AUTO 00000KT 10SM FEW110 21/18 A2975 RMK AO2 RAB0157E20 SLP070 P0000 60000 T02060178 58002 
KTVC 270153Z 16005KT 10SM SCT090 BKN180 19/15 A2980 RMK AO2 SLP087 LAST T01940150   
KTVC 270053Z 00000KT 10SM SCT095 BKN180 19/14 A2979 RMK AO2 SLP087 T01890144
KTVC 262353Z VRB03KT 10SM FEW095 BKN180 20/14 A2975 RMK AO2 SLP073 60000 T02000144 10283 20183 53018
KTVC 262253Z 03010KT 10SM FEW095 SCT150 19/14 A2974 RMK AO2 SLP069 OCNL LTGICCG DSNT E-SE CB DSNT E-SE MOV SE T01890139 
KTVC 262153Z 03008KT 10SM FEW095 FEW120 23/16 A2971 RMK AO2 LTG DSNT SE SLP058 T02280156
KTVC 262053Z 05005KT 10SM FEW047 SCT095 23/16 A2970 RMK AO2 LTG DSNT E RAB31E49 SLP054 P0000 60000 T02330156 55007  
KTVC 261953Z 03007KT 10SM SCT055 27/18 A2969 RMK AO2 LTG DSNT SE SLP052 T02720178   
KTVC 261853Z 02008KT 10SM SCT050 27/17 A2971 RMK AO2 SLP057 T02670172